Time;durP1;ratioP1;P1;durP2;ratioP2;P2;SDS_P1;SDS_P2;PMS_P1;PMS_P2;Temp;Humidity;BMP_temperature;BMP_pressure;BME280_temperature;BME280_humidity;BME280_pressure;Samples;Min_cycle;Max_cycle;Signal;HPM_P1;HPM_P2
2022/09/02 00:00:49;;;;;;;5.95;1.88;;;20.50;68.90;;;;;;5102711;28;20265;-60
2022/09/02 00:03:15;;;;;;;6.47;1.73;;;20.50;68.90;;;;;;5093968;28;20178;-60
2022/09/02 00:05:41;;;;;;;5.60;1.85;;;20.50;68.80;;;;;;5093660;28;20197;-60
2022/09/02 00:08:08;;;;;;;6.75;3.00;;;20.50;68.80;;;;;;5088544;28;20200;-61
2022/09/02 00:10:37;;;;;;;8.13;1.77;;;20.50;68.90;;;;;;5102095;28;20208;-61
2022/09/02 00:13:04;;;;;;;6.50;1.70;;;20.50;68.80;;;;;;5108101;28;20213;-61
2022/09/02 00:15:31;;;;;;;5.25;1.80;;;20.40;68.80;;;;;;5091752;28;20705;-61
2022/09/02 00:17:57;;;;;;;7.97;1.88;;;20.40;69.10;;;;;;5098230;28;20573;-61
2022/09/02 00:20:23;;;;;;;12.43;1.52;;;20.40;69.20;;;;;;5106986;28;20181;-61
2022/09/02 00:22:49;;;;;;;9.93;1.95;;;20.30;69.30;;;;;;5081665;28;20181;-61
2022/09/02 00:25:14;;;;;;;7.85;1.80;;;20.30;69.40;;;;;;5106712;27;20204;-61
2022/09/02 00:27:40;;;;;;;8.20;1.77;;;20.30;69.70;;;;;;5094037;28;20586;-61
2022/09/02 00:30:07;;;;;;;7.18;1.90;;;20.30;69.90;;;;;;5094982;28;20277;-61
2022/09/02 00:32:33;;;;;;;6.78;1.85;;;20.20;70.10;;;;;;5112861;28;20632;-61
2022/09/02 00:35:00;;;;;;;6.05;1.75;;;20.20;70.30;;;;;;5090862;28;20183;-61
2022/09/02 00:37:26;;;;;;;6.60;2.08;;;20.10;70.40;;;;;;5078011;28;20277;-61
2022/09/02 00:39:53;;;;;;;10.10;4.25;;;20.10;70.50;;;;;;5102476;28;20326;-61
2022/09/02 00:42:20;;;;;;;7.35;2.30;;;20.10;70.60;;;;;;5075585;28;20596;-61
2022/09/02 00:44:47;;;;;;;7.03;2.10;;;20.00;70.70;;;;;;5102902;28;20196;-61
2022/09/02 00:47:14;;;;;;;6.35;1.73;;;20.00;70.90;;;;;;5108929;28;20180;-61
2022/09/02 00:49:44;;;;;;;6.82;2.00;;;20.00;71.20;;;;;;5095817;27;20173;-61
2022/09/02 00:52:38;;;;;;;8.38;1.98;;;20.00;71.40;;;;;;5093525;28;20178;-61
2022/09/02 00:55:17;;;;;;;4.25;1.90;;;19.90;71.50;;;;;;5084086;28;20752;-61
2022/09/02 00:57:49;;;;;;;4.15;1.75;;;19.90;71.80;;;;;;5092269;28;20169;-61
2022/09/02 01:00:23;;;;;;;5.90;1.88;;;19.80;71.90;;;;;;5073187;28;20174;-61
2022/09/02 01:02:53;;;;;;;6.07;2.38;;;19.80;72.10;;;;;;5072333;28;20163;-61
2022/09/02 01:05:22;;;;;;;5.10;2.00;;;19.80;72.30;;;;;;5072665;28;20316;-61
2022/09/02 01:07:50;;;;;;;3.63;1.75;;;19.70;72.40;;;;;;5071396;28;20179;-61
2022/09/02 01:10:26;;;;;;;4.25;1.95;;;19.70;72.50;;;;;;5074421;28;20193;-61
2022/09/02 01:12:56;;;;;;;8.73;1.85;;;19.70;72.60;;;;;;5090949;28;20609;-61
2022/09/02 01:15:23;;;;;;;5.45;1.88;;;19.70;72.70;;;;;;5079908;28;20623;-61
2022/09/02 01:17:50;;;;;;;5.60;1.90;;;19.60;72.70;;;;;;5083454;28;20189;-61
2022/09/02 01:20:21;;;;;;;5.53;1.83;;;19.60;72.80;;;;;;5078017;28;20224;-61
2022/09/02 01:22:47;;;;;;;4.80;1.88;;;19.50;72.90;;;;;;5089036;28;20178;-61
2022/09/02 01:25:20;;;;;;;5.65;1.90;;;19.50;73.00;;;;;;5085956;28;20221;-61
2022/09/02 01:27:47;;;;;;;5.60;1.70;;;19.50;73.30;;;;;;5073259;28;20190;-61
2022/09/02 01:30:21;;;;;;;6.65;1.90;;;19.50;73.30;;;;;;5073711;28;20216;-61
2022/09/02 01:32:48;;;;;;;6.85;1.85;;;19.50;73.40;;;;;;5089426;28;20185;-61
2022/09/02 01:35:14;;;;;;;8.85;2.30;;;19.50;73.60;;;;;;5086402;28;20597;-61
2022/09/02 01:37:41;;;;;;;4.95;2.00;;;19.40;73.60;;;;;;5059393;28;20188;-61
2022/09/02 01:40:10;;;;;;;4.32;1.90;;;19.40;74.10;;;;;;5086334;28;20198;-61
2022/09/02 01:42:36;;;;;;;6.53;1.90;;;19.40;74.40;;;;;;5073094;28;20257;-60
2022/09/02 01:45:04;;;;;;;7.60;2.20;;;19.30;74.60;;;;;;5070931;28;20254;-61
2022/09/02 01:47:30;;;;;;;4.97;2.05;;;19.30;74.90;;;;;;5071402;28;20214;-61
2022/09/02 01:49:56;;;;;;;8.52;2.10;;;19.30;75.10;;;;;;5071582;28;21279;-61
2022/09/02 01:52:26;;;;;;;3.45;1.90;;;19.20;75.40;;;;;;5091828;28;20649;-60
2022/09/02 01:54:52;;;;;;;6.85;2.03;;;19.10;75.60;;;;;;5071630;28;20254;-60
2022/09/02 01:57:19;;;;;;;8.32;2.17;;;19.10;75.90;;;;;;5061060;28;20270;-61
2022/09/02 01:59:45;;;;;;;9.07;2.30;;;19.10;76.30;;;;;;5075454;28;20203;-61
2022/09/02 02:02:13;;;;;;;7.40;2.10;;;19.10;76.50;;;;;;5042562;28;20193;-60
2022/09/02 02:04:39;;;;;;;5.40;1.90;;;19.00;76.70;;;;;;5072695;28;20210;-61
2022/09/02 02:07:06;;;;;;;3.70;1.77;;;19.00;76.90;;;;;;5057867;28;20655;-61
2022/09/02 02:09:31;;;;;;;7.18;2.00;;;19.00;77.00;;;;;;5074726;28;20182;-61
2022/09/02 02:11:57;;;;;;;7.10;2.17;;;19.00;77.20;;;;;;5071273;28;20212;-61
2022/09/02 02:14:23;;;;;;;3.65;2.20;;;19.00;77.50;;;;;;5071850;28;20194;-61
2022/09/02 02:16:50;;;;;;;6.20;2.10;;;19.00;77.80;;;;;;5069514;28;20618;-61
2022/09/02 02:19:17;;;;;;;5.80;2.08;;;18.90;78.10;;;;;;5064337;28;20186;-61
2022/09/02 02:21:42;;;;;;;6.57;1.90;;;18.90;78.30;;;;;;5068137;28;20187;-61
2022/09/02 02:24:08;;;;;;;3.03;2.03;;;18.90;78.70;;;;;;5071452;28;20557;-61
2022/09/02 02:26:35;;;;;;;8.98;2.40;;;18.90;78.90;;;;;;5069548;28;20195;-62
2022/09/02 02:29:03;;;;;;;5.57;2.13;;;18.80;79.20;;;;;;5076221;28;20186;-61
2022/09/02 02:31:30;;;;;;;4.55;2.22;;;18.70;79.40;;;;;;5056790;28;20195;-60
2022/09/02 02:33:56;;;;;;;7.15;2.35;;;18.70;80.60;;;;;;5091265;28;20179;-61
2022/09/02 02:36:21;;;;;;;3.70;2.20;;;18.70;80.20;;;;;;5070527;28;20542;-61
2022/09/02 02:38:47;;;;;;;6.55;2.50;;;18.70;80.60;;;;;;5057355;28;20649;-61
2022/09/02 02:41:14;;;;;;;3.53;2.10;;;18.60;81.00;;;;;;5080221;28;20194;-61
2022/09/02 02:43:40;;;;;;;10.75;2.35;;;18.60;81.40;;;;;;5091418;28;20635;-61
2022/09/02 02:46:07;;;;;;;4.78;2.80;;;18.60;81.70;;;;;;5070138;28;20275;-60
2022/09/02 02:48:35;;;;;;;6.18;2.58;;;18.60;82.10;;;;;;5065875;28;20174;-61
2022/09/02 02:51:02;;;;;;;8.73;2.38;;;18.50;82.50;;;;;;5069096;28;20217;-60
2022/09/02 02:53:30;;;;;;;4.40;2.70;;;18.50;82.80;;;;;;5077233;28;20221;-60
2022/09/02 02:55:58;;;;;;;4.50;2.80;;;18.50;83.30;;;;;;5089990;28;20190;-61
2022/09/02 02:58:24;;;;;;;3.72;2.30;;;18.50;83.80;;;;;;5074553;28;20284;-60
2022/09/02 03:00:50;;;;;;;3.95;2.50;;;18.40;84.00;;;;;;5058363;28;20167;-62
2022/09/02 03:03:18;;;;;;;8.80;2.80;;;18.40;84.40;;;;;;5090508;28;20181;-60
2022/09/02 03:05:48;;;;;;;5.88;2.53;;;18.40;84.80;;;;;;5091020;28;20209;-60
2022/09/02 03:08:19;;;;;;;9.48;2.58;;;18.40;85.10;;;;;;5092258;28;20193;-60
2022/09/02 03:10:47;;;;;;;6.93;2.58;;;18.40;85.50;;;;;;5064665;28;20186;-60
2022/09/02 03:13:14;;;;;;;4.90;2.80;;;18.40;85.90;;;;;;5080299;28;20206;-60
2022/09/02 03:15:41;;;;;;;4.97;2.80;;;18.30;86.20;;;;;;5086678;28;20194;-61
2022/09/02 03:18:07;;;;;;;5.68;2.78;;;18.30;86.50;;;;;;5089031;28;20223;-60
2022/09/02 03:20:34;;;;;;;6.25;2.80;;;18.30;86.90;;;;;;5080392;28;20186;-60
2022/09/02 03:23:03;;;;;;;6.60;2.78;;;18.30;87.30;;;;;;5086600;28;20179;-60
2022/09/02 03:25:32;;;;;;;4.63;2.78;;;18.20;87.70;;;;;;5088089;28;20220;-59
2022/09/02 03:28:01;;;;;;;8.30;2.70;;;18.20;88.10;;;;;;5079354;28;20178;-59
2022/09/02 03:30:32;;;;;;;6.25;3.30;;;18.20;88.50;;;;;;5085641;28;20178;-60
2022/09/02 03:33:01;;;;;;;14.35;3.50;;;18.10;88.90;;;;;;5080627;28;20178;-60
2022/09/02 03:35:28;;;;;;;7.00;3.05;;;18.10;89.20;;;;;;5085160;28;20562;-59
2022/09/02 03:37:54;;;;;;;5.40;3.05;;;18.10;89.50;;;;;;5072887;28;20200;-59
2022/09/02 03:40:25;;;;;;;5.70;2.95;;;18.10;89.70;;;;;;5083704;28;21918;-59
2022/09/02 03:42:55;;;;;;;5.47;3.50;;;18.00;89.70;;;;;;5077468;28;20506;-60
2022/09/02 03:45:22;;;;;;;7.35;3.60;;;18.00;89.90;;;;;;5087336;28;20280;-60
2022/09/02 03:47:53;;;;;;;7.65;3.22;;;18.00;90.00;;;;;;5092444;28;20185;-59
2022/09/02 03:50:28;;;;;;;4.43;3.50;;;18.00;90.10;;;;;;5086142;28;20220;-59
2022/09/02 03:52:56;;;;;;;5.63;3.33;;;18.00;90.30;;;;;;5074379;28;20175;-60
2022/09/02 03:55:23;;;;;;;8.15;3.35;;;18.00;90.30;;;;;;5064893;28;20281;-59
2022/09/02 03:57:49;;;;;;;4.60;3.53;;;18.00;90.40;;;;;;5074453;28;20196;-59
2022/09/02 04:00:19;;;;;;;4.18;3.38;;;17.90;90.50;;;;;;5073292;28;20178;-59
2022/09/02 04:02:46;;;;;;;11.27;3.40;;;17.90;90.60;;;;;;5074385;28;20236;-60
2022/09/02 04:05:12;;;;;;;9.20;3.63;;;17.90;90.70;;;;;;5105452;28;20222;-59
2022/09/02 04:07:40;;;;;;;4.82;3.30;;;17.90;90.70;;;;;;5092643;28;20656;-59
2022/09/02 04:10:07;;;;;;;6.45;3.58;;;17.90;90.80;;;;;;5090265;28;20219;-59
2022/09/02 04:12:36;;;;;;;8.23;3.80;;;17.90;90.90;;;;;;5076363;28;20204;-60
2022/09/02 04:15:05;;;;;;;7.75;3.42;;;17.90;91.00;;;;;;5078098;28;20237;-59
2022/09/02 04:17:30;;;;;;;5.07;3.63;;;17.80;91.00;;;;;;5073654;28;20202;-59
2022/09/02 04:19:56;;;;;;;8.35;4.03;;;17.90;91.10;;;;;;5089053;28;20231;-59
2022/09/02 04:22:22;;;;;;;8.40;3.67;;;17.80;91.10;;;;;;5086548;28;20170;-58
2022/09/02 04:24:49;;;;;;;9.52;3.45;;;17.80;91.20;;;;;;5044112;28;20225;-59
2022/09/02 04:27:15;;;;;;;7.20;3.50;;;17.80;91.20;;;;;;5085500;28;20189;-59
2022/09/02 04:29:43;;;;;;;7.53;3.25;;;17.80;91.30;;;;;;5090351;28;20186;-59
2022/09/02 04:32:09;;;;;;;6.57;3.17;;;17.80;91.40;;;;;;5071439;28;20182;-59
2022/09/02 04:34:36;;;;;;;7.93;3.50;;;17.80;91.40;;;;;;5072960;28;20183;-60
2022/09/02 04:37:02;;;;;;;11.88;3.72;;;17.80;91.50;;;;;;5107159;27;20182;-59
2022/09/02 04:39:28;;;;;;;8.68;3.63;;;17.80;91.50;;;;;;5091242;28;20238;-58
2022/09/02 04:41:55;;;;;;;8.05;3.65;;;17.80;91.60;;;;;;5087912;28;20680;-59
2022/09/02 04:44:24;;;;;;;8.40;3.30;;;17.80;91.60;;;;;;5082722;28;20386;-59
2022/09/02 04:46:51;;;;;;;11.00;3.70;;;17.80;91.70;;;;;;5078668;28;20289;-59
2022/09/02 04:49:19;;;;;;;9.65;3.42;;;17.80;92.10;;;;;;5073132;28;20175;-59
2022/09/02 04:51:46;;;;;;;16.25;3.53;;;17.80;91.80;;;;;;5071817;28;20174;-59
2022/09/02 04:54:12;;;;;;;11.43;3.60;;;17.80;91.80;;;;;;5054943;28;20230;-60
2022/09/02 04:56:41;;;;;;;7.85;3.95;;;17.70;91.80;;;;;;5057563;28;20181;-59
2022/09/02 04:59:08;;;;;;;10.50;3.72;;;17.70;91.80;;;;;;5082503;28;20182;-60
2022/09/02 05:01:36;;;;;;;7.20;3.25;;;17.70;91.90;;;;;;5071323;28;20665;-60
2022/09/02 05:04:08;;;;;;;11.05;3.30;;;17.70;92.00;;;;;;5071887;28;20204;-60
2022/09/02 05:06:38;;;;;;;7.57;3.30;;;17.70;92.10;;;;;;5084563;28;20585;-59
2022/09/02 05:09:07;;;;;;;10.20;3.08;;;17.70;92.20;;;;;;5054519;28;20255;-61
2022/09/02 05:11:34;;;;;;;18.13;3.65;;;17.70;92.20;;;;;;5087796;28;20554;-62
2022/09/02 05:14:03;;;;;;;9.52;3.30;;;17.70;92.20;;;;;;5083290;28;20582;-61
2022/09/02 05:16:37;;;;;;;14.90;3.33;;;17.70;92.20;;;;;;5070967;28;20205;-63
2022/09/02 05:19:10;;;;;;;8.23;3.10;;;17.70;92.20;;;;;;5088542;28;20170;-60
2022/09/02 05:21:43;;;;;;;9.75;2.92;;;17.70;92.20;;;;;;5071630;28;20542;-60
2022/09/02 05:24:13;;;;;;;9.57;3.40;;;17.70;92.20;;;;;;5086806;28;20198;-60
2022/09/02 05:26:41;;;;;;;15.30;3.10;;;17.70;92.20;;;;;;5076372;28;20630;-63
2022/09/02 05:29:08;;;;;;;16.92;3.30;;;17.70;92.30;;;;;;5089938;28;20279;-60
2022/09/02 05:31:37;;;;;;;10.18;3.58;;;17.70;92.20;;;;;;5092130;28;20295;-61
2022/09/02 05:34:03;;;;;;;12.43;3.33;;;17.70;92.10;;;;;;5089344;28;20182;-61
2022/09/02 05:36:31;;;;;;;13.18;3.38;;;17.80;92.10;;;;;;5092008;28;20181;-61
2022/09/02 05:38:58;;;;;;;14.27;3.50;;;17.80;92.00;;;;;;5090376;28;20181;-61
2022/09/02 05:41:24;;;;;;;12.57;3.30;;;17.80;91.90;;;;;;5091099;28;20201;-63
2022/09/02 05:43:56;;;;;;;14.02;3.70;;;17.80;91.90;;;;;;5107966;28;20190;-63
2022/09/02 05:46:24;;;;;;;12.32;3.58;;;17.90;91.80;;;;;;5088384;28;20178;-64
2022/09/02 05:49:05;;;;;;;13.32;3.78;;;17.90;91.70;;;;;;5086021;28;20181;-60
2022/09/02 05:51:45;;;;;;;10.75;3.40;;;17.90;91.70;;;;;;5083577;28;20185;-60
2022/09/02 05:54:20;;;;;;;8.10;3.42;;;17.90;91.60;;;;;;5095253;28;20221;-60
2022/09/02 05:56:52;;;;;;;8.63;2.90;;;17.90;91.90;;;;;;5076994;28;20227;-61
2022/09/02 05:59:21;;;;;;;9.40;3.30;;;17.90;91.50;;;;;;5093212;28;20201;-61
2022/09/02 06:01:48;;;;;;;9.05;3.13;;;17.90;91.40;;;;;;5079616;28;20624;-61
2022/09/02 06:04:14;;;;;;;10.70;3.05;;;18.00;91.40;;;;;;5077646;28;20198;-60
2022/09/02 06:06:41;;;;;;;10.80;2.88;;;18.00;91.30;;;;;;5076729;28;20738;-60
2022/09/02 06:09:10;;;;;;;9.02;2.97;;;18.00;91.30;;;;;;5093236;28;20290;-60
2022/09/02 06:11:39;;;;;;;11.50;2.85;;;18.00;91.20;;;;;;5077488;28;20304;-60
2022/09/02 06:14:08;;;;;;;14.95;3.83;;;18.00;91.20;;;;;;5097095;28;20173;-60
2022/09/02 06:16:37;;;;;;;9.38;3.17;;;18.10;91.10;;;;;;5089624;28;20273;-60
2022/09/02 06:19:03;;;;;;;11.98;3.03;;;18.00;91.10;;;;;;5075907;28;20224;-60
2022/09/02 06:21:30;;;;;;;8.18;3.20;;;18.10;91.10;;;;;;5078772;28;20277;-60
2022/09/02 06:23:57;;;;;;;11.23;2.75;;;18.10;91.10;;;;;;5090703;28;20560;-64
2022/09/02 06:26:23;;;;;;;11.50;3.30;;;18.10;91.00;;;;;;5078986;28;20309;-61
2022/09/02 06:28:49;;;;;;;15.75;3.10;;;18.20;91.00;;;;;;5077353;28;20186;-62
2022/09/02 06:31:19;;;;;;;9.90;2.90;;;18.10;91.00;;;;;;5088862;28;20280;-62
2022/09/02 06:33:46;;;;;;;7.53;2.80;;;18.10;91.00;;;;;;5075033;28;20189;-60
2022/09/02 06:36:16;;;;;;;7.88;3.05;;;18.20;91.10;;;;;;5087949;28;20714;-61
2022/09/02 06:38:44;;;;;;;11.23;3.10;;;18.20;91.00;;;;;;5083797;28;20174;-64
2022/09/02 06:41:12;;;;;;;10.05;2.97;;;18.20;91.00;;;;;;5083636;28;20200;-62
2022/09/02 06:43:41;;;;;;;11.95;2.90;;;18.20;91.00;;;;;;5070846;28;20175;-63
2022/09/02 06:46:24;;;;;;;7.45;2.40;;;18.20;91.00;;;;;;5083483;28;20205;-64
2022/09/02 06:48:53;;;;;;;6.45;3.15;;;18.30;91.00;;;;;;5095543;28;20162;-63
2022/09/02 06:51:28;;;;;;;7.18;2.30;;;18.30;90.90;;;;;;5092806;28;20629;-61
2022/09/02 06:53:55;;;;;;;8.77;2.60;;;18.30;90.90;;;;;;5089259;28;20386;-60
2022/09/02 06:56:24;;;;;;;12.32;2.35;;;18.40;90.80;;;;;;5081914;28;20669;-60
2022/09/02 06:58:50;;;;;;;12.13;2.50;;;18.40;90.80;;;;;;5086161;28;20629;-60
2022/09/02 07:01:25;;;;;;;7.10;2.58;;;18.40;90.70;;;;;;5092324;28;20656;-61
2022/09/02 07:06:40;;;;;;;10.35;2.45;;;18.60;90.70;;;;;;5076321;28;20252;-64
2022/09/02 07:09:09;;;;;;;15.23;2.50;;;18.60;90.50;;;;;;5078340;28;20231;-61
2022/09/02 07:11:36;;;;;;;17.45;2.40;;;18.70;90.50;;;;;;5080632;28;20269;-65
2022/09/02 07:14:03;;;;;;;8.02;1.80;;;18.70;90.40;;;;;;5075486;28;20232;-62
2022/09/02 07:16:41;;;;;;;12.25;2.15;;;18.80;90.30;;;;;;5086237;28;20249;-60
2022/09/02 07:19:07;;;;;;;7.10;1.90;;;18.80;90.00;;;;;;5090928;28;20180;-61
2022/09/02 07:21:33;;;;;;;8.60;2.17;;;18.90;89.70;;;;;;5075366;28;20261;-60
2022/09/02 07:24:00;;;;;;;6.45;1.80;;;18.90;89.00;;;;;;5075380;28;20181;-60
2022/09/02 07:26:27;;;;;;;5.05;1.83;;;18.90;88.30;;;;;;5079896;28;20181;-62
2022/09/02 07:28:54;;;;;;;7.57;1.70;;;19.00;88.00;;;;;;5077989;28;20186;-62
2022/09/02 07:31:22;;;;;;;5.15;2.05;;;19.10;87.70;;;;;;5076426;28;20186;-60
2022/09/02 07:33:49;;;;;;;10.95;2.10;;;19.20;87.40;;;;;;5073732;28;20547;-63
2022/09/02 07:36:15;;;;;;;7.82;2.40;;;19.20;86.90;;;;;;5064445;28;20174;-62
2022/09/02 07:38:42;;;;;;;5.47;1.98;;;19.30;86.30;;;;;;5079943;28;20208;-62
2022/09/02 07:41:09;;;;;;;5.45;1.80;;;19.30;85.40;;;;;;5073750;28;20630;-64
2022/09/02 07:43:37;;;;;;;7.82;1.85;;;19.40;84.40;;;;;;5056472;28;20178;-64
2022/09/02 07:46:04;;;;;;;3.08;1.45;;;19.50;83.80;;;;;;5081889;28;20229;-65
2022/09/02 07:48:32;;;;;;;6.32;1.73;;;19.50;83.20;;;;;;5074324;28;20660;-64
2022/09/02 07:51:00;;;;;;;11.43;1.70;;;19.50;82.80;;;;;;5072067;28;20265;-64
2022/09/02 07:53:28;;;;;;;7.05;1.80;;;19.60;82.50;;;;;;5083174;28;20178;-62
2022/09/02 07:55:54;;;;;;;5.10;2.00;;;19.70;82.40;;;;;;5084539;28;20173;-63
2022/09/02 07:58:22;;;;;;;5.07;2.05;;;19.70;82.30;;;;;;5059825;28;20174;-62
2022/09/02 08:00:49;;;;;;;5.38;1.80;;;19.80;82.40;;;;;;5090906;28;20272;-62
2022/09/02 08:03:16;;;;;;;4.10;1.80;;;19.80;82.50;;;;;;5072047;28;20187;-62
2022/09/02 08:05:48;;;;;;;7.97;2.30;;;19.90;81.50;;;;;;5078917;28;20208;-62
2022/09/02 08:08:19;;;;;;;6.63;1.88;;;19.90;80.70;;;;;;5112743;28;20230;-62
2022/09/02 08:10:47;;;;;;;5.30;2.15;;;20.00;80.50;;;;;;5099669;28;20200;-61
2022/09/02 08:13:13;;;;;;;6.30;1.92;;;20.00;80.50;;;;;;5108868;28;20181;-61
2022/09/02 08:15:39;;;;;;;9.85;2.20;;;20.10;80.20;;;;;;5103564;28;20671;-60
2022/09/02 08:18:06;;;;;;;6.85;2.10;;;20.10;79.80;;;;;;5101205;28;20182;-61
2022/09/02 08:20:32;;;;;;;7.47;2.13;;;20.20;79.80;;;;;;5070433;27;20173;-61
2022/09/02 08:22:58;;;;;;;6.15;1.67;;;20.20;79.30;;;;;;5097448;28;20206;-61
2022/09/02 08:25:24;;;;;;;5.05;2.28;;;20.30;78.90;;;;;;5093564;28;20598;-61
2022/09/02 08:27:52;;;;;;;10.93;3.35;;;20.30;78.80;;;;;;5097358;28;20656;-61
2022/09/02 08:30:18;;;;;;;12.65;3.90;;;20.40;79.00;;;;;;5087056;28;20177;-61
2022/09/02 08:32:44;;;;;;;8.85;4.43;;;20.40;78.70;;;;;;5101184;28;20204;-61
2022/09/02 08:35:10;;;;;;;5.97;2.40;;;20.50;78.90;;;;;;5090478;28;20533;-61
2022/09/02 08:37:36;;;;;;;10.98;2.58;;;20.50;78.20;;;;;;5100409;27;20637;-61
2022/09/02 08:40:05;;;;;;;7.70;2.25;;;20.60;78.10;;;;;;5088603;28;20178;-62
2022/09/02 08:42:57;;;;;;;11.43;2.15;;;20.60;78.20;;;;;;5092981;28;20212;-61
2022/09/02 08:45:27;;;;;;;5.55;1.70;;;20.70;78.00;;;;;;5093476;28;20224;-61
2022/09/02 08:48:04;;;;;;;9.00;2.20;;;20.70;77.50;;;;;;5113549;28;20219;-61
2022/09/02 08:50:31;;;;;;;8.75;1.90;;;20.80;77.20;;;;;;5105586;28;20189;-62
2022/09/02 08:53:08;;;;;;;4.65;1.75;;;20.90;76.90;;;;;;5088612;28;20177;-63
2022/09/02 08:55:50;;;;;;;5.47;2.13;;;21.00;76.40;;;;;;5102139;28;20277;-61
2022/09/02 08:58:22;;;;;;;6.15;1.90;;;21.00;75.70;;;;;;5094880;28;20628;-61
2022/09/02 09:01:06;;;;;;;8.27;2.53;;;21.10;75.60;;;;;;5091913;28;20265;-61
2022/09/02 09:04:11;;;;;;;5.72;2.00;;;21.10;75.30;;;;;;5098151;28;20263;-61
2022/09/02 09:06:52;;;;;;;3.53;1.85;;;21.20;74.70;;;;;;5039548;28;20205;-62
2022/09/02 09:09:48;;;;;;;6.68;1.95;;;21.20;75.20;;;;;;5110809;28;20231;-61
2022/09/02 09:12:39;;;;;;;7.40;2.10;;;21.30;74.90;;;;;;5110386;28;20188;-61
2022/09/02 09:15:35;;;;;;;4.75;1.83;;;21.40;74.60;;;;;;5107371;28;20307;-62
2022/09/02 09:18:06;;;;;;;7.70;2.00;;;21.50;74.10;;;;;;5097326;28;20264;-61
2022/09/02 09:20:40;;;;;;;4.28;1.90;;;21.50;74.00;;;;;;5093428;28;20170;-61
2022/09/02 09:23:32;;;;;;;5.20;1.92;;;21.60;74.00;;;;;;5089067;28;20702;-62
2022/09/02 09:26:12;;;;;;;7.38;1.90;;;21.70;73.70;;;;;;5070453;28;20225;-61
2022/09/02 09:28:47;;;;;;;8.65;2.50;;;21.70;73.60;;;;;;5092271;28;20208;-62
2022/09/02 09:31:19;;;;;;;6.45;2.65;;;21.80;73.30;;;;;;5089065;28;20199;-62
2022/09/02 09:34:06;;;;;;;14.25;2.50;;;21.90;73.00;;;;;;5095871;28;20166;-62
2022/09/02 09:36:53;;;;;;;7.15;2.63;;;22.00;72.10;;;;;;5096169;28;20228;-63
2022/09/02 09:39:22;;;;;;;6.68;3.00;;;22.10;71.80;;;;;;5091055;28;20178;-62
2022/09/02 09:41:49;;;;;;;6.60;2.58;;;22.10;71.30;;;;;;5092827;28;20656;-62
2022/09/02 09:44:47;;;;;;;8.82;2.90;;;22.20;71.20;;;;;;5098600;28;20234;-63
2022/09/02 09:47:22;;;;;;;7.47;2.63;;;22.30;70.70;;;;;;5047800;28;20217;-64
2022/09/02 09:49:53;;;;;;;6.55;2.53;;;22.40;71.30;;;;;;5092095;28;20234;-63
2022/09/02 09:52:27;;;;;;;6.75;2.30;;;22.50;71.50;;;;;;5092555;28;20178;-63
2022/09/02 09:55:21;;;;;;;9.15;2.22;;;22.60;70.50;;;;;;5076330;28;20228;-64
2022/09/02 09:57:48;;;;;;;6.72;2.45;;;22.70;70.30;;;;;;5093400;28;20178;-64
2022/09/02 10:00:25;;;;;;;8.55;2.15;;;22.70;70.00;;;;;;5103523;28;20174;-66
2022/09/02 10:02:57;;;;;;;6.28;2.25;;;22.80;69.80;;;;;;5074946;28;20673;-63
2022/09/02 10:05:27;;;;;;;8.82;2.40;;;22.90;69.30;;;;;;5102265;28;20223;-64
2022/09/02 10:07:56;;;;;;;7.40;2.03;;;23.00;69.30;;;;;;5094787;28;20186;-64
2022/09/02 10:10:24;;;;;;;5.13;2.20;;;23.00;68.70;;;;;;5097598;28;20256;-65
2022/09/02 10:12:53;;;;;;;4.72;2.22;;;23.10;68.20;;;;;;5095525;28;20673;-64
2022/09/02 10:15:43;;;;;;;4.88;2.05;;;23.10;67.60;;;;;;5108542;28;20265;-62
2022/09/02 10:18:29;;;;;;;4.90;2.20;;;23.20;68.20;;;;;;5096465;28;20260;-65
2022/09/02 10:21:16;;;;;;;12.07;2.63;;;23.20;67.80;;;;;;5103065;27;20176;-65
2022/09/02 10:23:54;;;;;;;11.85;2.03;;;23.20;67.70;;;;;;5094684;28;20185;-64
2022/09/02 10:26:31;;;;;;;10.27;2.38;;;23.30;68.00;;;;;;5100521;28;20216;-64
2022/09/02 10:29:12;;;;;;;9.18;1.98;;;23.40;67.70;;;;;;5096665;28;20180;-64
2022/09/02 10:31:41;;;;;;;4.90;2.15;;;23.50;66.90;;;;;;5094773;28;20180;-65
2022/09/02 10:34:35;;;;;;;6.63;2.40;;;23.60;66.50;;;;;;5087864;28;20587;-65
2022/09/02 10:37:10;;;;;;;6.50;1.90;;;23.80;66.00;;;;;;5115595;28;20242;-65
2022/09/02 10:39:48;;;;;;;4.60;2.20;;;23.90;65.20;;;;;;5110427;28;20176;-65
2022/09/02 10:42:45;;;;;;;5.95;2.28;;;24.10;64.50;;;;;;5096308;28;20203;-64
2022/09/02 10:45:20;;;;;;;6.32;2.30;;;24.20;62.80;;;;;;5065797;28;20304;-64
2022/09/02 10:47:58;;;;;;;8.50;2.17;;;24.30;62.90;;;;;;5060958;28;20192;-64
2022/09/02 10:50:49;;;;;;;10.93;2.03;;;24.40;62.30;;;;;;5099961;28;20184;-64
2022/09/02 10:53:25;;;;;;;13.10;2.20;;;24.50;62.00;;;;;;5099355;28;20205;-64
2022/09/02 10:56:12;;;;;;;8.00;2.50;;;24.60;62.10;;;;;;5099645;28;20262;-64
2022/09/02 10:58:53;;;;;;;8.00;2.25;;;24.80;61.30;;;;;;5097670;28;20169;-64
2022/09/02 11:01:25;;;;;;;9.50;2.08;;;24.80;60.70;;;;;;5099325;28;20177;-64
2022/09/02 11:03:59;;;;;;;9.10;2.60;;;25.00;60.30;;;;;;5107743;28;20621;-64
2022/09/02 11:06:31;;;;;;;3.83;2.45;;;25.10;59.50;;;;;;5095399;28;20660;-65
2022/09/02 11:09:01;;;;;;;9.02;2.40;;;25.20;59.20;;;;;;5108140;28;20562;-65
2022/09/02 11:11:42;;;;;;;6.32;2.05;;;25.30;58.80;;;;;;5095431;28;20621;-65
2022/09/02 11:14:29;;;;;;;9.18;2.58;;;25.40;58.40;;;;;;5110366;28;20178;-64
2022/09/02 11:17:04;;;;;;;7.40;2.30;;;25.60;58.20;;;;;;5108793;27;20180;-64
2022/09/02 11:19:42;;;;;;;8.15;2.10;;;25.70;57.70;;;;;;5096461;27;20249;-65
2022/09/02 11:22:20;;;;;;;4.22;2.50;;;25.80;57.20;;;;;;5106243;28;20582;-65
2022/09/02 11:25:01;;;;;;;6.25;2.35;;;25.90;57.10;;;;;;5111270;28;20209;-63
2022/09/02 11:27:51;;;;;;;5.15;2.30;;;26.10;56.80;;;;;;5094788;28;20257;-64
2022/09/02 11:30:24;;;;;;;9.38;2.45;;;26.20;56.10;;;;;;5101716;28;20178;-65
2022/09/02 11:33:11;;;;;;;8.52;2.50;;;26.40;55.80;;;;;;5094558;27;20213;-62
2022/09/02 11:35:38;;;;;;;9.65;2.58;;;26.50;55.50;;;;;;5102008;28;20279;-62
2022/09/02 11:38:30;;;;;;;10.60;2.83;;;26.70;55.30;;;;;;5111854;28;20189;-66
2022/09/02 11:40:56;;;;;;;10.82;3.20;;;26.80;54.70;;;;;;5085453;28;20208;-65
2022/09/02 11:43:40;;;;;;;10.30;2.78;;;27.00;54.60;;;;;;5091489;28;20631;-64
2022/09/02 11:46:27;;;;;;;7.65;2.42;;;27.10;54.00;;;;;;5087567;28;20315;-65
2022/09/02 11:49:41;;;;;;;12.43;2.38;;;27.20;53.50;;;;;;5111091;28;20177;-66
2022/09/02 11:52:22;;;;;;;9.25;2.47;;;27.30;53.00;;;;;;5096710;28;20693;-66
2022/09/02 11:54:53;;;;;;;12.05;2.85;;;27.40;52.40;;;;;;5104858;27;20228;-64
2022/09/02 11:57:22;;;;;;;12.80;2.45;;;27.50;52.50;;;;;;5107200;28;20184;-66
2022/09/02 11:59:51;;;;;;;16.52;2.58;;;27.60;52.00;;;;;;5111996;28;20165;-65
2022/09/02 12:02:38;;;;;;;10.38;2.45;;;27.70;51.80;;;;;;5074968;28;20197;-64
2022/09/02 12:05:29;;;;;;;5.15;2.15;;;27.80;51.60;;;;;;5077211;28;20216;-64
2022/09/02 12:08:10;;;;;;;6.40;2.25;;;28.00;51.00;;;;;;5070670;28;20703;-64
2022/09/02 12:10:41;;;;;;;8.45;2.50;;;28.10;50.90;;;;;;5094107;28;20212;-63
2022/09/02 12:13:08;;;;;;;4.63;2.30;;;28.20;50.60;;;;;;5108733;28;20191;-65
2022/09/02 12:15:35;;;;;;;6.10;2.13;;;28.30;50.10;;;;;;5069665;28;20189;-65
2022/09/02 12:18:35;;;;;;;6.07;2.47;;;28.40;50.10;;;;;;5063936;28;20181;-64
2022/09/02 12:21:06;;;;;;;11.77;2.47;;;28.50;49.50;;;;;;5041510;28;20656;-64
2022/09/02 12:23:47;;;;;;;9.95;2.35;;;28.60;49.30;;;;;;5093974;28;20263;-64
2022/09/02 12:26:15;;;;;;;9.20;2.28;;;28.70;49.30;;;;;;5096152;28;20224;-64
2022/09/02 12:28:45;;;;;;;6.68;2.22;;;28.70;49.80;;;;;;5093011;28;20487;-64
2022/09/02 12:31:14;;;;;;;13.90;2.50;;;28.90;49.20;;;;;;5093279;28;20273;-64
2022/09/02 12:33:48;;;;;;;6.03;2.30;;;29.00;48.70;;;;;;5093380;28;20169;-64
2022/09/02 12:36:52;;;;;;;7.88;2.20;;;29.10;48.50;;;;;;5098881;28;20184;-64
2022/09/02 12:39:24;;;;;;;10.25;2.35;;;29.20;48.10;;;;;;5010254;28;20274;-65
2022/09/02 12:42:02;;;;;;;7.07;2.10;;;29.30;47.60;;;;;;5083517;28;20199;-65
2022/09/02 12:44:54;;;;;;;3.88;1.80;;;29.40;46.80;;;;;;5094733;28;20181;-65
2022/09/02 12:47:31;;;;;;;7.15;2.08;;;29.50;46.00;;;;;;5091747;28;20204;-66
2022/09/02 12:50:11;;;;;;;8.07;2.17;;;29.60;45.60;;;;;;5094765;28;20180;-65
2022/09/02 12:52:43;;;;;;;7.07;2.10;;;29.60;45.10;;;;;;5113795;28;20176;-65
2022/09/02 12:55:25;;;;;;;4.03;2.17;;;29.60;45.30;;;;;;5072362;28;20230;-65
2022/09/02 12:58:18;;;;;;;7.68;2.15;;;29.70;44.20;;;;;;5092459;28;20173;-66
2022/09/02 13:01:02;;;;;;;8.02;1.80;;;29.80;43.60;;;;;;5084551;28;20229;-65
2022/09/02 13:03:35;;;;;;;6.07;2.03;;;30.00;43.00;;;;;;5113996;28;20161;-64
2022/09/02 13:06:04;;;;;;;4.53;1.80;;;30.00;41.90;;;;;;5069251;28;20216;-65
2022/09/02 13:08:32;;;;;;;7.18;2.20;;;30.00;41.40;;;;;;5105009;28;20263;-65
2022/09/02 13:11:29;;;;;;;9.35;2.13;;;30.10;41.20;;;;;;5093503;28;20185;-64